Time;durP1;ratioP1;P1;durP2;ratioP2;P2;SDS_P1;SDS_P2;PMS_P1;PMS_P2;Temp;Humidity;BMP_temperature;BMP_pressure;BME280_temperature;BME280_humidity;BME280_pressure;Samples;Min_cycle;Max_cycle;Signal;HPM_P1;HPM_P2
2022/04/23 00:00:57;;;;;;;;;;;;;;;10.39;92.74;98996.19;4975994;28;823;-57
2022/04/23 00:03:24;;;;;;;;;;;;;;;10.49;92.50;99012.97;4975901;28;858;-58
2022/04/23 00:05:51;;;;;;;;;;;;;;;10.49;92.10;99007.44;4976020;28;943;-58
2022/04/23 00:08:17;;;;;;;;;;;;;;;10.36;92.35;99004.50;4975918;28;902;-58
2022/04/23 00:10:44;;;;;;;;;;;;;;;10.27;92.59;99007.78;4975777;28;824;-57
2022/04/23 00:13:11;;;;;;;;;;;;;;;10.20;91.94;99000.41;4975438;28;1883;-57
2022/04/23 00:15:37;;;;;;;;;;;;;;;10.15;91.29;98989.03;4975718;28;819;-58
2022/04/23 00:18:07;;;;;;;;;;;;;;;10.10;91.15;98981.25;4975720;28;835;-57
2022/04/23 00:20:35;;;;;;;;;;;;;;;10.09;91.20;98982.44;4975444;28;938;-57
2022/04/23 00:23:01;;;;;;;;;;;;;;;10.09;91.87;98979.66;4975510;28;1103;-57
2022/04/23 00:25:27;;;;;;;;;;;;;;;10.10;91.19;98972.97;4975552;28;945;-58
2022/04/23 00:27:54;;;;;;;;;;;;;;;10.13;91.74;98972.09;4975281;28;1171;-58
2022/04/23 00:30:21;;;;;;;;;;;;;;;10.10;92.12;98970.19;4975367;28;958;-57
2022/04/23 00:32:48;;;;;;;;;;;;;;;10.10;92.33;98967.44;4975249;28;1960;-58
2022/04/23 00:35:15;;;;;;;;;;;;;;;10.02;92.57;98964.78;4975316;28;811;-58
2022/04/23 00:37:42;;;;;;;;;;;;;;;10.02;91.76;98947.44;4975263;28;946;-58
2022/04/23 00:40:16;;;;;;;;;;;;;;;10.01;90.41;98941.16;4974543;28;1000;-57
2022/04/23 00:42:53;;;;;;;;;;;;;;;10.04;90.02;98931.22;4975045;28;954;-57
2022/04/23 00:45:24;;;;;;;;;;;;;;;9.99;90.37;98937.25;4975063;28;883;-57
2022/04/23 00:47:51;;;;;;;;;;;;;;;9.96;91.37;98944.41;4975116;28;847;-57
2022/04/23 00:50:21;;;;;;;;;;;;;;;10.05;90.81;98943.84;4975130;28;827;-58
2022/04/23 00:52:52;;;;;;;;;;;;;;;10.05;90.25;98934.78;4974929;28;1894;-57
2022/04/23 00:55:19;;;;;;;;;;;;;;;10.09;89.80;98929.97;4974920;28;859;-57
2022/04/23 00:57:46;;;;;;;;;;;;;;;10.13;90.10;98934.22;4974916;28;815;-58
2022/04/23 01:00:13;;;;;;;;;;;;;;;10.21;90.28;98945.94;4974833;28;942;-58
2022/04/23 01:02:40;;;;;;;;;;;;;;;10.27;90.45;98947.03;4974765;28;863;-57
2022/04/23 01:05:09;;;;;;;;;;;;;;;10.24;89.88;98947.84;4974787;28;863;-57
2022/04/23 01:07:42;;;;;;;;;;;;;;;10.28;88.79;98945.81;4974578;28;930;-57
2022/04/23 01:10:10;;;;;;;;;;;;;;;10.32;89.05;98954.84;4974952;28;843;-58
2022/04/23 01:12:37;;;;;;;;;;;;;;;10.29;89.27;98943.84;4974548;28;1948;-57
2022/04/23 01:15:04;;;;;;;;;;;;;;;10.18;88.87;98938.50;4974625;28;831;-57
2022/04/23 01:17:31;;;;;;;;;;;;;;;10.01;89.14;98930.09;4974589;28;827;-58
2022/04/23 01:19:58;;;;;;;;;;;;;;;9.81;90.54;98898.88;4974523;28;913;-58
2022/04/23 01:22:25;;;;;;;;;;;;;;;9.64;91.79;98916.50;4974567;28;839;-58
2022/04/23 01:24:52;;;;;;;;;;;;;;;9.59;92.88;98915.00;4974385;28;1020;-57
2022/04/23 01:27:18;;;;;;;;;;;;;;;9.63;93.20;98898.41;4974322;28;1289;-57
2022/04/23 01:29:45;;;;;;;;;;;;;;;9.62;93.55;98903.13;4974340;28;906;-57
2022/04/23 01:32:12;;;;;;;;;;;;;;;9.56;94.12;98894.56;4974454;28;1950;-57
2022/04/23 01:34:38;;;;;;;;;;;;;;;9.60;94.41;98887.00;4974381;28;894;-57
2022/04/23 01:37:05;;;;;;;;;;;;;;;9.66;94.52;98884.53;4974469;28;859;-57
2022/04/23 01:39:32;;;;;;;;;;;;;;;9.65;94.70;98891.25;4974469;28;788;-57
2022/04/23 01:41:58;;;;;;;;;;;;;;;9.66;94.86;98892.03;4974317;28;897;-57
2022/04/23 01:44:24;;;;;;;;;;;;;;;9.60;94.81;98895.28;4974425;28;858;-57
2022/04/23 01:46:51;;;;;;;;;;;;;;;9.48;95.36;98906.88;4974269;28;894;-57
2022/04/23 01:49:18;;;;;;;;;;;;;;;9.34;95.90;98898.81;4974000;28;874;-57
2022/04/23 01:51:45;;;;;;;;;;;;;;;9.26;96.22;98892.63;4972792;28;1946;-58
2022/04/23 01:54:12;;;;;;;;;;;;;;;9.20;96.45;98903.34;4973833;28;955;-57
2022/04/23 01:56:37;;;;;;;;;;;;;;;9.06;96.76;98902.75;4973730;28;997;-57
2022/04/23 01:59:04;;;;;;;;;;;;;;;8.90;97.48;98900.59;4973732;28;843;-57
2022/04/23 02:01:30;;;;;;;;;;;;;;;8.77;98.08;98903.91;4973909;28;804;-57
2022/04/23 02:03:59;;;;;;;;;;;;;;;8.71;98.92;98919.31;4973710;28;811;-57
2022/04/23 02:06:25;;;;;;;;;;;;;;;8.71;99.19;98915.78;4973542;28;998;-58
2022/04/23 02:08:52;;;;;;;;;;;;;;;8.65;98.59;98912.69;4973594;28;788;-57
2022/04/23 02:11:18;;;;;;;;;;;;;;;8.65;98.00;98915.44;4973430;28;823;-57
2022/04/23 02:13:46;;;;;;;;;;;;;;;8.64;98.25;98922.16;4973421;28;1886;-57
2022/04/23 02:16:13;;;;;;;;;;;;;;;8.51;97.79;98921.09;4973689;28;855;-57
2022/04/23 02:18:39;;;;;;;;;;;;;;;8.35;98.86;98925.16;4973418;28;885;-57
2022/04/23 02:21:06;;;;;;;;;;;;;;;8.39;98.89;98917.66;4973390;28;871;-57
2022/04/23 02:23:33;;;;;;;;;;;;;;;8.51;98.12;98910.09;4955899;28;1368;-58
2022/04/23 02:26:00;;;;;;;;;;;;;;;8.61;97.32;98902.91;4973064;28;1269;-57
2022/04/23 02:28:27;;;;;;;;;;;;;;;8.53;96.69;98899.44;4973278;28;880;-58
2022/04/23 02:30:53;;;;;;;;;;;;;;;8.33;96.83;98888.22;4973262;28;819;-57
2022/04/23 02:33:20;;;;;;;;;;;;;;;8.19;97.78;98889.13;4973030;28;1964;-57
2022/04/23 02:35:48;;;;;;;;;;;;;;;8.17;98.55;98892.31;4973116;28;883;-57
2022/04/23 02:38:17;;;;;;;;;;;;;;;8.09;98.78;98906.56;4973031;28;911;-57
2022/04/23 02:40:44;;;;;;;;;;;;;;;7.93;98.80;98905.09;4972976;28;832;-57
2022/04/23 02:43:14;;;;;;;;;;;;;;;7.94;99.49;98897.66;4972974;28;942;-57
2022/04/23 02:45:41;;;;;;;;;;;;;;;7.95;99.45;98907.47;4973240;28;859;-57
2022/04/23 02:48:11;;;;;;;;;;;;;;;7.84;99.76;98901.28;4973227;28;871;-57
2022/04/23 02:50:38;;;;;;;;;;;;;;;7.81;100.00;98893.81;4973002;28;870;-57
2022/04/23 02:53:05;;;;;;;;;;;;;;;7.76;99.97;98897.78;4972932;28;1882;-57
2022/04/23 02:55:33;;;;;;;;;;;;;;;7.77;100.00;98902.88;4972973;28;1054;-58
2022/04/23 02:58:03;;;;;;;;;;;;;;;7.74;100.00;98908.41;4972941;28;819;-57
2022/04/23 03:00:30;;;;;;;;;;;;;;;7.62;100.00;98917.13;4972816;28;890;-57
2022/04/23 03:02:57;;;;;;;;;;;;;;;7.43;100.00;98915.72;4972551;28;803;-57
2022/04/23 03:05:25;;;;;;;;;;;;;;;7.31;100.00;98914.22;4972902;28;874;-57
2022/04/23 03:07:55;;;;;;;;;;;;;;;7.30;100.00;98916.19;4972759;28;1241;-57
2022/04/23 03:10:21;;;;;;;;;;;;;;;7.26;100.00;98920.13;4972749;28;891;-57
2022/04/23 03:12:48;;;;;;;;;;;;;;;7.21;100.00;98898.56;4955543;28;1906;-57
2022/04/23 03:15:16;;;;;;;;;;;;;;;7.19;100.00;98900.91;4972786;28;818;-57
2022/04/23 03:17:44;;;;;;;;;;;;;;;7.08;100.00;98896.28;4972542;28;899;-57
2022/04/23 03:20:12;;;;;;;;;;;;;;;6.94;100.00;98894.38;4972665;28;875;-57
2022/04/23 03:22:39;;;;;;;;;;;;;;;6.86;100.00;98894.81;4972656;28;886;-58
2022/04/23 03:25:07;;;;;;;;;;;;;;;6.80;100.00;98896.41;4972570;28;894;-57
2022/04/23 03:27:33;;;;;;;;;;;;;;;6.83;100.00;98901.91;4972422;28;1259;-57
2022/04/23 03:30:00;;;;;;;;;;;;;;;6.96;100.00;98907.72;4972646;28;858;-57
2022/04/23 03:32:27;;;;;;;;;;;;;;;6.99;100.00;98906.13;4972455;28;1964;-58
2022/04/23 03:34:54;;;;;;;;;;;;;;;6.94;100.00;98904.59;4972566;28;819;-58
2022/04/23 03:37:21;;;;;;;;;;;;;;;6.88;100.00;98901.47;4972441;28;898;-57
2022/04/23 03:39:48;;;;;;;;;;;;;;;6.83;100.00;98909.34;4972420;28;1050;-57
2022/04/23 03:42:15;;;;;;;;;;;;;;;6.81;100.00;98914.47;4955107;28;1059;-58
2022/04/23 03:44:42;;;;;;;;;;;;;;;6.75;100.00;98909.38;4972492;28;969;-58
2022/04/23 03:47:08;;;;;;;;;;;;;;;6.82;100.00;98913.28;4972378;28;862;-58
2022/04/23 03:49:35;;;;;;;;;;;;;;;6.96;100.00;98899.47;4972644;28;816;-58
2022/04/23 03:52:02;;;;;;;;;;;;;;;7.10;100.00;98907.63;4972292;28;1878;-58
2022/04/23 03:54:29;;;;;;;;;;;;;;;7.14;100.00;98908.41;4972701;28;890;-57
2022/04/23 03:56:55;;;;;;;;;;;;;;;7.21;100.00;98910.34;4972418;28;803;-58
2022/04/23 03:59:23;;;;;;;;;;;;;;;7.23;100.00;98916.19;4972473;28;898;-58
2022/04/23 04:01:54;;;;;;;;;;;;;;;7.21;100.00;98912.28;4972314;28;794;-58
2022/04/23 04:04:21;;;;;;;;;;;;;;;7.20;100.00;98913.50;4972211;28;1033;-58
2022/04/23 04:06:48;;;;;;;;;;;;;;;7.19;100.00;98903.66;4972269;28;1251;-58
2022/04/23 04:09:15;;;;;;;;;;;;;;;7.19;100.00;98898.19;4972324;28;923;-58
2022/04/23 04:14:25;;;;;;;;;;;;;;;7.14;100.00;98904.88;4973242;28;688;-58
2022/04/23 04:16:52;;;;;;;;;;;;;;;7.15;100.00;98906.47;4975669;28;855;-58
2022/04/23 04:19:19;;;;;;;;;;;;;;;7.14;100.00;98904.88;4975687;28;827;-58
2022/04/23 04:21:46;;;;;;;;;;;;;;;7.23;100.00;98909.94;4975594;28;843;-58
2022/04/23 04:24:14;;;;;;;;;;;;;;;7.30;100.00;98907.94;4975552;28;815;-58
2022/04/23 04:26:40;;;;;;;;;;;;;;;7.41;100.00;98913.38;4975402;28;1269;-58
2022/04/23 04:29:07;;;;;;;;;;;;;;;7.53;100.00;98901.91;4975576;28;819;-58
2022/04/23 04:31:47;;;;;;;;;;;;;;;7.63;100.00;98910.47;4975441;28;843;-58
2022/04/23 04:34:14;;;;;;;;;;;;;;;7.72;100.00;98908.84;4975302;28;922;-59
2022/04/23 04:36:40;;;;;;;;;;;;;;;7.81;100.00;98908.38;4975160;28;930;-58
2022/04/23 04:39:07;;;;;;;;;;;;;;;7.86;100.00;98916.19;4975334;28;831;-58
2022/04/23 04:41:35;;;;;;;;;;;;;;;7.92;100.00;98898.06;4975264;28;971;-58
2022/04/23 04:44:02;;;;;;;;;;;;;;;8.08;100.00;98897.50;4975112;28;939;-58
2022/04/23 04:46:29;;;;;;;;;;;;;;;8.30;100.00;98900.84;4975172;28;886;-58
2022/04/23 04:48:55;;;;;;;;;;;;;;;8.53;100.00;98897.47;4975129;28;868;-58
2022/04/23 04:51:22;;;;;;;;;;;;;;;8.76;100.00;98891.28;4974974;28;852;-58
2022/04/23 04:53:51;;;;;;;;;;;;;;;9.06;100.00;98889.75;4975034;28;1962;-58
2022/04/23 04:56:18;;;;;;;;;;;;;;;9.32;98.57;98909.47;4974825;28;882;-58
2022/04/23 04:58:45;;;;;;;;;;;;;;;9.46;96.73;98901.00;4975199;28;828;-58
2022/04/23 05:01:12;;;;;;;;;;;;;;;9.69;97.25;98899.50;4974768;28;1222;-58
2022/04/23 05:03:40;;;;;;;;;;;;;;;9.98;96.85;98892.28;4974952;28;866;-58
2022/04/23 05:06:10;;;;;;;;;;;;;;;10.32;97.16;98883.03;4974940;28;905;-58
2022/04/23 05:08:37;;;;;;;;;;;;;;;10.81;97.52;98883.25;4974740;28;964;-58
2022/04/23 05:11:04;;;;;;;;;;;;;;;11.65;95.66;98888.56;4974785;28;823;-58
2022/04/23 05:13:31;;;;;;;;;;;;;;;12.58;91.32;98900.03;4974639;28;1875;-58
2022/04/23 05:16:01;;;;;;;;;;;;;;;13.48;87.78;98894.66;4974635;28;882;-58
2022/04/23 05:18:27;;;;;;;;;;;;;;;14.00;84.50;98893.41;4974483;28;839;-58
2022/04/23 05:20:54;;;;;;;;;;;;;;;14.22;80.79;98903.78;4974583;28;1024;-58
2022/04/23 05:23:21;;;;;;;;;;;;;;;14.51;77.50;98903.59;4974620;28;890;-59
2022/04/23 05:25:46;;;;;;;;;;;;;;;14.91;74.91;98902.97;4974118;28;1172;-59
2022/04/23 05:28:13;;;;;;;;;;;;;;;15.56;72.07;98890.16;4974718;28;827;-59
2022/04/23 05:30:39;;;;;;;;;;;;;;;16.11;72.15;98886.75;4974418;28;823;-59
2022/04/23 05:33:06;;;;;;;;;;;;;;;16.41;69.46;98898.22;4974100;28;1907;-59
2022/04/23 05:35:34;;;;;;;;;;;;;;;16.66;70.79;98900.72;4974218;28;808;-59
2022/04/23 05:38:01;;;;;;;;;;;;;;;16.78;70.32;98893.41;4974188;28;856;-58
2022/04/23 05:40:27;;;;;;;;;;;;;;;16.81;70.08;98888.94;4974097;28;919;-58
2022/04/23 05:42:57;;;;;;;;;;;;;;;16.74;70.91;98893.56;4974150;28;811;-58
2022/04/23 05:45:23;;;;;;;;;;;;;;;17.31;70.99;98890.22;4974192;28;908;-59
2022/04/23 05:47:50;;;;;;;;;;;;;;;17.98;63.36;98898.63;4974088;28;820;-58
2022/04/23 05:50:17;;;;;;;;;;;;;;;18.44;66.33;98914.31;4973934;28;902;-58
2022/04/23 05:52:44;;;;;;;;;;;;;;;18.91;64.83;98918.31;4973766;28;1947;-59
2022/04/23 05:55:10;;;;;;;;;;;;;;;19.31;61.87;98914.94;4973884;28;804;-59
2022/04/23 05:57:38;;;;;;;;;;;;;;;19.62;59.81;98915.66;4956455;28;1507;-59
2022/04/23 06:00:06;;;;;;;;;;;;;;;19.98;60.90;98900.41;4973929;28;904;-59
2022/04/23 06:02:32;;;;;;;;;;;;;;;20.90;62.40;98901.75;4973647;28;912;-59
2022/04/23 06:04:59;;;;;;;;;;;;;;;21.72;59.16;98898.66;4973540;28;875;-59
2022/04/23 06:07:26;;;;;;;;;;;;;;;22.21;59.56;98893.00;4973914;28;883;-58
2022/04/23 06:09:53;;;;;;;;;;;;;;;22.79;58.99;98896.31;4973669;28;792;-59
2022/04/23 06:12:19;;;;;;;;;;;;;;;23.33;55.80;98908.69;4973445;28;2298;-59
2022/04/23 06:14:46;;;;;;;;;;;;;;;23.07;53.42;98920.22;4973495;28;922;-59
2022/04/23 06:17:13;;;;;;;;;;;;;;;23.08;54.28;98925.31;4956326;28;856;-59
2022/04/23 06:19:40;;;;;;;;;;;;;;;22.87;54.98;98907.06;4973413;28;855;-59
2022/04/23 06:22:07;;;;;;;;;;;;;;;22.66;53.12;98904.47;4956011;28;1529;-59
2022/04/23 06:24:34;;;;;;;;;;;;;;;22.40;54.73;98913.06;4973434;28;819;-59
2022/04/23 06:27:01;;;;;;;;;;;;;;;22.53;53.42;98913.41;4973096;28;1786;-59
2022/04/23 06:29:27;;;;;;;;;;;;;;;22.61;54.46;98910.84;4973321;28;843;-59
2022/04/23 06:31:55;;;;;;;;;;;;;;;22.18;51.38;98911.69;4973156;28;2017;-59
2022/04/23 06:34:22;;;;;;;;;;;;;;;22.29;53.88;98901.78;4973286;28;823;-59
2022/04/23 06:36:48;;;;;;;;;;;;;;;22.51;51.95;98910.31;4972463;28;1004;-59
2022/04/23 06:39:15;;;;;;;;;;;;;;;22.61;51.16;98902.41;4973155;28;804;-59
2022/04/23 06:41:41;;;;;;;;;;;;;;;22.57;51.41;98893.44;4973095;28;800;-58
2022/04/23 06:44:08;;;;;;;;;;;;;;;22.76;52.33;98894.50;4973019;28;926;-58
2022/04/23 06:46:35;;;;;;;;;;;;;;;23.08;50.61;98899.19;4973072;28;868;-59
2022/04/23 06:49:05;;;;;;;;;;;;;;;22.87;50.51;98890.94;4973043;28;851;-59
2022/04/23 06:51:31;;;;;;;;;;;;;;;23.32;48.74;98893.06;4972888;28;931;-59
2022/04/23 06:53:58;;;;;;;;;;;;;;;23.56;48.42;98889.72;4972847;28;1938;-59
2022/04/23 06:56:25;;;;;;;;;;;;;;;23.68;47.55;98887.66;4972954;28;1034;-59
2022/04/23 06:58:52;;;;;;;;;;;;;;;23.82;48.32;98886.63;4972752;28;871;-59
2022/04/23 07:01:19;;;;;;;;;;;;;;;23.84;46.36;98878.41;4972928;28;1040;-59
2022/04/23 07:03:46;;;;;;;;;;;;;;;23.58;47.01;98876.63;4972856;28;874;-59
2022/04/23 07:06:15;;;;;;;;;;;;;;;23.76;47.85;98880.22;4972638;28;942;-59
2022/04/23 07:08:43;;;;;;;;;;;;;;;24.00;45.09;98882.47;4972682;28;950;-59
2022/04/23 07:11:09;;;;;;;;;;;;;;;23.82;47.46;98893.03;4972723;28;901;-59
2022/04/23 07:13:37;;;;;;;;;;;;;;;24.04;46.23;98888.63;4972928;28;1906;-59
2022/04/23 07:16:05;;;;;;;;;;;;;;;24.13;46.63;98887.56;4972659;28;900;-59
2022/04/23 07:18:32;;;;;;;;;;;;;;;24.28;47.10;98893.66;4972693;28;846;-59
2022/04/23 07:20:58;;;;;;;;;;;;;;;24.02;45.64;98891.19;4972611;28;917;-58
2022/04/23 07:26:11;;;;;;;;;;;;;;;24.07;46.54;98886.81;4972523;28;1207;-59
2022/04/23 07:28:38;;;;;;;;;;;;;;;24.29;42.00;98894.44;4972598;28;912;-58
2022/04/23 07:31:05;;;;;;;;;;;;;;;23.65;44.13;98893.03;4972590;28;909;-58
2022/04/23 07:39:04;;;;;;;;;;;;;;;24.29;45.35;98908.56;4955144;28;1609;-59
2022/04/23 07:41:31;;;;;;;;;;;;;;;23.98;44.31;98902.75;4972536;28;878;-59
2022/04/23 07:43:58;;;;;;;;;;;;;;;23.94;44.89;98901.47;4972505;28;823;-58
2022/04/23 07:46:24;;;;;;;;;;;;;;;23.86;44.76;98903.31;4972554;28;827;-58
2022/04/23 07:48:51;;;;;;;;;;;;;;;24.11;45.21;98892.94;4974226;28;866;-58
2022/04/23 07:51:18;;;;;;;;;;;;;;;24.48;45.09;98895.38;4976194;28;824;-58
2022/04/23 07:53:45;;;;;;;;;;;;;;;24.79;46.84;98890.59;4975998;28;2013;-58
2022/04/23 07:56:12;;;;;;;;;;;;;;;25.26;42.38;98894.16;4976073;28;887;-58
2022/04/23 07:58:38;;;;;;;;;;;;;;;25.19;44.18;98897.53;4976021;28;935;-58
2022/04/23 08:01:04;;;;;;;;;;;;;;;25.27;42.34;98886.44;4975879;28;907;-58
2022/04/23 08:03:31;;;;;;;;;;;;;;;24.69;42.06;98900.69;4975904;28;820;-59
2022/04/23 08:05:57;;;;;;;;;;;;;;;24.63;42.03;98895.06;4975948;28;876;-58
2022/04/23 08:08:24;;;;;;;;;;;;;;;24.59;43.00;98892.53;4975879;28;968;-58
2022/04/23 08:10:51;;;;;;;;;;;;;;;25.00;43.60;98891.75;4976262;28;867;-59
2022/04/23 08:13:17;;;;;;;;;;;;;;;25.19;42.44;98891.09;4976226;28;1883;-59
2022/04/23 08:15:44;;;;;;;;;;;;;;;25.54;40.79;98887.50;4975920;28;906;-59
2022/04/23 08:18:11;;;;;;;;;;;;;;;25.54;38.20;98881.06;4975955;28;820;-59
2022/04/23 08:20:40;;;;;;;;;;;;;;;25.74;40.81;98886.28;4975801;28;923;-59
2022/04/23 08:23:07;;;;;;;;;;;;;;;25.99;37.42;98880.63;4958795;28;879;-59
2022/04/23 08:25:34;;;;;;;;;;;;;;;26.20;38.79;98880.91;4975760;28;934;-59
2022/04/23 08:30:47;;;;;;;;;;;;;;;26.04;36.16;98885.47;4976193;28;614;-59
2022/04/23 08:33:13;;;;;;;;;;;;;;;25.56;36.35;98884.13;4976068;28;1906;-59
2022/04/23 08:35:40;;;;;;;;;;;;;;;25.30;38.81;98893.88;4976261;28;756;-59
2022/04/23 08:38:07;;;;;;;;;;;;;;;25.59;41.37;98885.91;4975358;28;901;-59
2022/04/23 08:40:44;;;;;;;;;;;;;;;25.87;38.32;98892.03;4975461;28;839;-59
2022/04/23 08:43:11;;;;;;;;;;;;;;;26.07;39.23;98893.69;4975185;28;950;-59
2022/04/23 08:45:38;;;;;;;;;;;;;;;26.44;38.71;98892.19;4975203;28;847;-59
2022/04/23 08:48:07;;;;;;;;;;;;;;;26.43;37.29;98884.22;4975124;28;934;-59
2022/04/23 08:50:36;;;;;;;;;;;;;;;26.21;38.20;98885.28;4975289;28;843;-59
2022/04/23 08:53:02;;;;;;;;;;;;;;;26.29;39.22;98883.38;4975185;28;1947;-59
2022/04/23 08:55:30;;;;;;;;;;;;;;;26.49;38.67;98874.34;4974997;28;823;-59
2022/04/23 08:57:57;;;;;;;;;;;;;;;26.52;38.85;98874.56;4974964;28;937;-59
2022/04/23 09:00:23;;;;;;;;;;;;;;;26.32;38.10;98870.22;4974374;28;882;-59
2022/04/23 09:02:50;;;;;;;;;;;;;;;25.93;38.80;98879.94;4974759;28;867;-59
2022/04/23 09:05:18;;;;;;;;;;;;;;;26.13;38.79;98876.59;4974795;28;963;-59
2022/04/23 09:07:56;;;;;;;;;;;;;;;25.96;38.47;98873.19;4974700;28;966;-59
2022/04/23 09:10:41;;;;;;;;;;;;;;;25.26;39.50;98877.19;4974741;28;974;-59
2022/04/23 09:13:08;;;;;;;;;;;;;;;25.37;40.26;98869.91;4974909;28;1945;-59
2022/04/23 09:24:06;;;;;;;;;;;;;;;25.49;38.96;98873.41;4974540;28;696;-59
2022/04/23 09:26:33;;;;;;;;;;;;;;;25.77;42.19;98876.72;4974255;28;1345;-59
2022/04/23 09:29:11;;;;;;;;;;;;;;;25.64;36.82;98879.44;4974403;28;919;-59
2022/04/23 09:31:38;;;;;;;;;;;;;;;25.35;38.58;98876.09;4974260;28;811;-59
2022/04/23 09:34:14;;;;;;;;;;;;;;;25.03;41.08;98882.22;4974243;28;1971;-59
2022/04/23 09:36:58;;;;;;;;;;;;;;;24.86;40.59;98882.34;4956909;28;917;-59
2022/04/23 09:39:31;;;;;;;;;;;;;;;24.55;39.59;98882.78;4974214;28;835;-59
2022/04/23 09:42:14;;;;;;;;;;;;;;;24.51;39.67;98880.22;4974136;28;911;-59
2022/04/23 09:44:40;;;;;;;;;;;;;;;24.56;43.51;98873.81;4973993;28;966;-59
2022/04/23 09:47:06;;;;;;;;;;;;;;;24.43;40.01;98879.22;4974392;28;816;-59
2022/04/23 09:49:34;;;;;;;;;;;;;;;24.10;41.49;98869.59;4974201;28;874;-59
2022/04/23 09:52:08;;;;;;;;;;;;;;;24.33;41.63;98870.28;4973753;28;1886;-59
2022/04/23 09:54:35;;;;;;;;;;;;;;;24.89;39.46;98852.25;4973994;28;823;-59
2022/04/23 09:57:02;;;;;;;;;;;;;;;24.78;39.37;98863.66;4973876;28;878;-59
2022/04/23 10:25:53;;;;;;;;;;;;;;;24.72;37.69;98855.19;6101032;23;1536;-59
2022/04/23 10:28:20;;;;;;;;;;;;;;;24.75;37.33;98854.16;4934007;29;1965;-59
2022/04/23 10:30:46;;;;;;;;;;;;;;;25.03;38.10;98851.13;4935141;29;858;-59
2022/04/23 10:33:28;;;;;;;;;;;;;;;25.19;36.24;98862.84;4934768;29;2005;-59
2022/04/23 10:36:08;;;;;;;;;;;;;;;25.37;36.30;98852.94;4934695;29;1197;-59
2022/04/23 10:38:38;;;;;;;;;;;;;;;25.45;33.21;98857.50;4934702;29;981;-59
2022/04/23 10:41:05;;;;;;;;;;;;;;;25.54;34.80;98852.78;4934834;29;828;-59
2022/04/23 10:43:32;;;;;;;;;;;;;;;25.73;33.12;98853.59;4934520;29;895;-59
2022/04/23 10:46:00;;;;;;;;;;;;;;;25.51;34.31;98854.59;4934690;29;863;-59
2022/04/23 10:48:27;;;;;;;;;;;;;;;25.66;34.65;98854.97;4934541;29;956;-59
2022/04/23 10:51:00;;;;;;;;;;;;;;;25.67;36.37;98855.75;4934543;29;815;-59
2022/04/23 10:53:29;;;;;;;;;;;;;;;25.94;36.52;98859.56;4934552;29;1890;-59
2022/04/23 10:56:06;;;;;;;;;;;;;;;26.32;35.20;98856.81;4934417;29;815;-58
2022/04/23 10:58:33;;;;;;;;;;;;;;;26.49;33.48;98854.50;4934373;29;895;-59
2022/04/23 11:01:20;;;;;;;;;;;;;;;26.71;32.28;98851.94;4934396;29;905;-59
2022/04/23 11:03:56;;;;;;;;;;;;;;;26.72;32.48;98854.22;4934387;29;859;-58
2022/04/23 11:12:23;;;;;;;;;;;;;;;26.55;33.22;98857.28;4934511;29;1887;-59
2022/04/23 11:14:53;;;;;;;;;;;;;;;26.66;33.47;98850.72;4934335;29;823;-59
2022/04/23 11:17:23;;;;;;;;;;;;;;;27.04;31.89;98850.66;4934474;29;843;-59
2022/04/23 11:19:53;;;;;;;;;;;;;;;27.40;32.99;98851.09;4934649;29;895;-59
2022/04/23 11:22:20;;;;;;;;;;;;;;;27.36;33.22;98844.22;4934361;29;839;-59
2022/04/23 11:24:47;;;;;;;;;;;;;;;27.49;32.47;98838.56;4937644;29;960;-59
2022/04/23 11:27:48;;;;;;;;;;;;;;;27.71;31.80;98843.06;4948535;29;1399;-59
2022/04/23 11:30:26;;;;;;;;;;;;;;;27.80;32.05;98836.97;4929757;29;1208;-59
2022/04/23 11:32:53;;;;;;;;;;;;;;;27.63;32.80;98840.13;4957243;29;871;-59
2022/04/23 11:35:26;;;;;;;;;;;;;;;27.64;31.33;98843.72;4957371;29;882;-59
2022/04/23 11:37:53;;;;;;;;;;;;;;;27.63;32.17;98847.84;4940073;29;808;-59
2022/04/23 11:40:24;;;;;;;;;;;;;;;27.45;32.91;98841.72;4957095;29;867;-59
2022/04/23 11:42:50;;;;;;;;;;;;;;;27.60;33.27;98843.28;4956917;28;1931;-59
2022/04/23 11:45:18;;;;;;;;;;;;;;;27.98;33.33;98843.09;4957042;29;906;-59
2022/04/23 11:47:45;;;;;;;;;;;;;;;28.14;32.69;98838.38;4957101;29;882;-59
2022/04/23 11:50:11;;;;;;;;;;;;;;;27.19;33.33;98833.91;4956883;28;851;-59
2022/04/23 11:52:37;;;;;;;;;;;;;;;26.46;33.42;98832.16;4956935;29;875;-60
2022/04/23 11:55:04;;;;;;;;;;;;;;;25.82;34.43;98829.84;4956656;29;978;-59
2022/04/23 11:57:31;;;;;;;;;;;;;;;25.46;34.68;98832.81;4956868;28;1048;-59
2022/04/23 12:00:01;;;;;;;;;;;;;;;25.33;37.22;98833.44;4956712;29;839;-59
2022/04/23 12:02:29;;;;;;;;;;;;;;;25.68;36.06;98834.63;4956847;29;1947;-59
2022/04/23 12:04:57;;;;;;;;;;;;;;;25.84;35.95;98832.94;4956872;29;803;-59
2022/04/23 12:07:25;;;;;;;;;;;;;;;26.20;35.78;98835.59;4956663;29;851;-59
2022/04/23 12:09:51;;;;;;;;;;;;;;;26.82;35.11;98837.59;4957383;29;760;-58
2022/04/23 12:12:19;;;;;;;;;;;;;;;26.50;34.27;98838.28;4956604;29;812;-59
2022/04/23 12:14:47;;;;;;;;;;;;;;;26.47;35.98;98842.19;4956819;29;874;-59
2022/04/23 12:17:23;;;;;;;;;;;;;;;27.35;32.75;98832.09;4956847;29;902;-59
2022/04/23 12:19:50;;;;;;;;;;;;;;;28.10;33.46;98836.66;4956478;29;795;-59
2022/04/23 12:22:27;;;;;;;;;;;;;;;28.50;32.94;98838.66;4956607;29;1890;-59
2022/04/23 12:25:09;;;;;;;;;;;;;;;28.53;33.85;98837.56;4956711;29;945;-59
2022/04/23 12:27:54;;;;;;;;;;;;;;;27.29;35.43;98845.63;4955999;28;1368;-59
2022/04/23 12:41:59;;;;;;;;;;;;;;;24.08;42.91;98843.94;4956453;29;657;-58
2022/04/23 12:44:37;;;;;;;;;;;;;;;24.36;39.24;98829.69;4955948;28;886;-58
2022/04/23 12:47:05;;;;;;;;;;;;;;;25.08;40.49;98834.66;4938797;29;875;-59
2022/04/23 12:49:44;;;;;;;;;;;;;;;25.37;40.56;98833.13;4955794;28;827;-59
2022/04/23 12:52:16;;;;;;;;;;;;;;;25.70;40.35;98837.69;4955798;29;943;-59
2022/04/23 12:55:02;;;;;;;;;;;;;;;24.84;40.34;98839.72;4955707;29;843;-59
2022/04/23 12:57:29;;;;;;;;;;;;;;;23.62;40.90;98843.31;4955930;29;1930;-59
2022/04/23 12:59:56;;;;;;;;;;;;;;;23.43;41.86;98839.50;4955952;29;895;-59
2022/04/23 13:02:22;;;;;;;;;;;;;;;23.41;42.22;98840.00;4955786;29;1894;-59
2022/04/23 13:04:49;;;;;;;;;;;;;;;24.03;41.02;98842.69;4955938;29;891;-59
2022/04/23 13:10:00;;;;;;;;;;;;;;;24.37;40.75;98833.31;4955523;29;705;-59
2022/04/23 13:12:26;;;;;;;;;;;;;;;24.62;40.69;98839.84;4955539;29;874;-59
2022/04/23 13:14:53;;;;;;;;;;;;;;;25.20;40.84;98842.56;4955468;29;878;-59
2022/04/23 13:17:20;;;;;;;;;;;;;;;26.13;39.78;98836.97;4955313;28;816;-59
2022/04/23 13:19:49;;;;;;;;;;;;;;;26.58;38.35;98832.78;4955326;29;859;-59
2022/04/23 13:22:16;;;;;;;;;;;;;;;26.84;38.70;98832.94;4955321;28;1890;-59
2022/04/23 13:24:43;;;;;;;;;;;;;;;27.07;36.86;98829.72;4955148;29;812;-59
2022/04/23 13:27:09;;;;;;;;;;;;;;;27.35;37.31;98831.34;4928078;29;1159;-60
2022/04/23 13:29:36;;;;;;;;;;;;;;;27.73;36.62;98823.41;4935952;29;902;-59
2022/04/23 13:32:03;;;;;;;;;;;;;;;26.80;34.56;98828.84;4935952;29;859;-60
2022/04/23 13:34:29;;;;;;;;;;;;;;;26.16;36.93;98827.41;4935885;29;827;-59
2022/04/23 13:36:55;;;;;;;;;;;;;;;25.85;36.97;98835.19;4935931;29;820;-59
2022/04/23 13:39:23;;;;;;;;;;;;;;;26.21;36.42;98832.22;4935779;29;811;-60
2022/04/23 13:41:49;;;;;;;;;;;;;;;27.19;37.93;98827.47;4935915;29;880;-59
2022/04/23 13:44:16;;;;;;;;;;;;;;;27.91;36.21;98833.16;4935642;29;1908;-59
2022/04/23 13:46:43;;;;;;;;;;;;;;;28.05;35.03;98825.38;4935555;29;819;-59
2022/04/23 13:49:09;;;;;;;;;;;;;;;27.58;34.56;98828.88;4935602;29;934;-59
2022/04/23 13:51:37;;;;;;;;;;;;;;;26.95;34.31;98829.16;4935724;29;776;-59
2022/04/23 13:54:04;;;;;;;;;;;;;;;26.43;34.84;98834.00;4935413;29;978;-59
2022/04/23 13:56:30;;;;;;;;;;;;;;;25.14;35.77;98833.31;4935312;29;943;-59
2022/04/23 13:58:56;;;;;;;;;;;;;;;24.36;37.13;98838.16;4935390;29;860;-59
2022/04/23 14:01:23;;;;;;;;;;;;;;;24.81;37.52;98835.09;4935344;29;839;-59
2022/04/23 14:12:05;;;;;;;;;;;;;;;24.39;37.71;98839.22;4935279;29;809;-59
2022/04/23 14:14:32;;;;;;;;;;;;;;;24.40;37.44;98835.09;4935321;29;901;-59
2022/04/23 14:16:58;;;;;;;;;;;;;;;24.74;38.95;98830.03;4935278;29;823;-59
2022/04/23 14:19:24;;;;;;;;;;;;;;;24.79;37.53;98831.25;4935150;29;886;-59
2022/04/23 14:21:51;;;;;;;;;;;;;;;24.85;38.95;98832.75;4934916;29;847;-59
2022/04/23 14:24:17;;;;;;;;;;;;;;;25.25;38.60;98838.91;4935007;29;1887;-59
2022/04/23 14:26:44;;;;;;;;;;;;;;;25.12;36.07;98835.91;4941509;29;1344;-59
2022/04/23 14:29:10;;;;;;;;;;;;;;;24.77;36.64;98837.47;4954204;29;914;-59